createdAt,value
2018-04-17T00:00:33.345Z,994.89
2018-04-17T00:01:33.346Z,994.86
2018-04-17T00:02:33.340Z,994.85
2018-04-17T00:03:33.335Z,994.84
2018-04-17T00:04:33.331Z,994.85
2018-04-17T00:05:33.331Z,994.86
2018-04-17T00:06:33.333Z,994.9
2018-04-17T00:07:33.332Z,994.89
2018-04-17T00:08:33.323Z,994.86
2018-04-17T00:09:33.321Z,994.93
2018-04-17T00:10:33.324Z,994.88
2018-04-17T00:11:34.117Z,994.9
2018-04-17T00:12:33.315Z,994.88
2018-04-17T00:13:33.315Z,994.88
2018-04-17T00:14:33.310Z,994.9
2018-04-17T00:15:33.307Z,994.92
2018-04-17T00:16:33.305Z,994.9
2018-04-17T00:17:33.302Z,994.87
2018-04-17T00:18:33.303Z,994.91
2018-04-17T00:19:33.304Z,994.88
2018-04-17T00:20:33.299Z,994.85
2018-04-17T00:21:33.294Z,994.89
2018-04-17T00:22:33.293Z,994.89
2018-04-17T00:23:33.289Z,994.88
2018-04-17T00:24:33.287Z,994.9
2018-04-17T00:25:33.285Z,994.88
2018-04-17T00:26:33.283Z,994.89
2018-04-17T00:27:33.282Z,994.88
2018-04-17T00:28:33.282Z,994.89
2018-04-17T00:29:33.277Z,994.89
2018-04-17T00:30:33.278Z,994.86
2018-04-17T00:31:33.272Z,994.94
2018-04-17T00:32:33.271Z,994.93
2018-04-17T00:33:33.269Z,994.94
2018-04-17T00:34:33.264Z,994.96
2018-04-17T00:35:33.263Z,994.95
2018-04-17T00:36:33.263Z,995
2018-04-17T00:37:33.263Z,994.97
2018-04-17T00:38:33.258Z,995.02
2018-04-17T00:39:33.253Z,995.02
2018-04-17T00:40:33.257Z,995.02
2018-04-17T00:41:33.248Z,995.04
2018-04-17T00:42:33.253Z,995.08
2018-04-17T00:43:33.243Z,995.09
2018-04-17T00:44:33.245Z,995.09
2018-04-17T00:45:33.239Z,995.11
2018-04-17T00:46:33.238Z,995.13
2018-04-17T00:47:33.235Z,995.12
2018-04-17T00:48:33.240Z,995.12
2018-04-17T00:49:33.230Z,995.13
2018-04-17T00:50:33.229Z,995.14
2018-04-17T00:51:33.228Z,995.13
2018-04-17T00:52:33.223Z,995.17
2018-04-17T00:53:33.220Z,995.15
2018-04-17T00:54:33.221Z,995.17
2018-04-17T00:55:33.227Z,995.21
2018-04-17T00:56:33.214Z,995.17
2018-04-17T00:57:33.211Z,995.16
2018-04-17T00:58:33.210Z,995.14
2018-04-17T00:59:33.207Z,995.15
2018-04-17T01:00:33.212Z,995.12
2018-04-17T01:01:33.205Z,995.17
2018-04-17T01:02:33.201Z,995.21
2018-04-17T01:03:33.198Z,995.17
2018-04-17T01:04:33.197Z,995.16
2018-04-17T01:05:33.192Z,995.16
2018-04-17T01:06:33.191Z,995.16
2018-04-17T01:07:33.194Z,995.16
2018-04-17T01:08:33.190Z,995.2
2018-04-17T01:09:33.184Z,995.21
2018-04-17T01:10:33.184Z,995.22
2018-04-17T01:11:33.188Z,995.26
2018-04-17T01:12:33.188Z,995.24
2018-04-17T01:13:33.185Z,995.28
2018-04-17T01:14:33.172Z,995.27
2018-04-17T01:15:33.169Z,995.21
2018-04-17T01:16:33.166Z,995.25
2018-04-17T01:17:33.164Z,995.26
2018-04-17T01:18:33.161Z,995.26
2018-04-17T01:19:33.158Z,995.28
2018-04-17T01:20:33.160Z,995.23
2018-04-17T01:21:33.152Z,995.28
2018-04-17T01:22:33.151Z,995.27
2018-04-17T01:23:33.147Z,995.29
2018-04-17T01:24:33.146Z,995.31
2018-04-17T01:25:33.141Z,995.32
2018-04-17T01:26:33.140Z,995.31
2018-04-17T01:27:33.136Z,995.31
2018-04-17T01:28:33.132Z,995.3
2018-04-17T01:29:33.134Z,995.31
2018-04-17T01:30:33.128Z,995.34
2018-04-17T01:31:33.126Z,995.33
2018-04-17T01:32:34.176Z,995.34
2018-04-17T01:33:33.123Z,995.33
2018-04-17T01:34:33.116Z,995.37
2018-04-17T01:35:33.114Z,995.39
2018-04-17T01:36:33.111Z,995.38
2018-04-17T01:37:33.108Z,995.36
2018-04-17T01:38:33.106Z,995.38
2018-04-17T01:39:33.102Z,995.44
2018-04-17T01:40:33.102Z,995.42
2018-04-17T01:41:33.097Z,995.42
2018-04-17T01:42:33.094Z,995.41
2018-04-17T01:43:33.090Z,995.48
2018-04-17T01:44:33.087Z,995.45
2018-04-17T01:45:33.087Z,995.48
2018-04-17T01:46:33.083Z,995.46
2018-04-17T01:47:33.079Z,995.48
2018-04-17T01:48:33.076Z,995.48
2018-04-17T01:49:33.076Z,995.55
2018-04-17T01:50:33.085Z,995.51
2018-04-17T01:51:33.070Z,995.56
2018-04-17T01:52:33.069Z,995.52
2018-04-17T01:53:33.064Z,995.53
2018-04-17T01:54:33.061Z,995.51
2018-04-17T01:55:33.059Z,995.49
2018-04-17T01:56:33.057Z,995.51
2018-04-17T01:57:33.055Z,995.53
2018-04-17T01:58:33.052Z,995.51
2018-04-17T01:59:33.047Z,995.52
2018-04-17T02:00:33.046Z,995.51
2018-04-17T02:01:33.044Z,995.5
2018-04-17T02:02:33.040Z,995.53
2018-04-17T02:03:33.036Z,995.52
2018-04-17T02:04:33.033Z,995.56
2018-04-17T02:05:33.029Z,995.57
2018-04-17T02:06:33.027Z,995.6
2018-04-17T02:07:33.031Z,995.6
2018-04-17T02:08:33.023Z,995.57
2018-04-17T02:09:33.018Z,995.57
2018-04-17T02:10:33.021Z,995.55
2018-04-17T02:11:33.016Z,995.6
2018-04-17T02:12:33.011Z,995.62
2018-04-17T02:13:33.006Z,995.59
2018-04-17T02:14:33.005Z,995.59
2018-04-17T02:15:33.000Z,995.6
2018-04-17T02:16:32.997Z,995.59
2018-04-17T02:17:32.999Z,995.62
2018-04-17T02:18:32.992Z,995.61
2018-04-17T02:19:32.989Z,995.62
2018-04-17T02:20:32.985Z,995.64
2018-04-17T02:21:32.987Z,995.6
2018-04-17T02:22:32.981Z,995.64
2018-04-17T02:23:32.977Z,995.63
2018-04-17T02:24:32.972Z,995.63
2018-04-17T02:25:32.973Z,995.65
2018-04-17T02:26:32.979Z,995.64
2018-04-17T02:27:32.975Z,995.66
2018-04-17T02:28:32.962Z,995.65
2018-04-17T02:29:32.962Z,995.68
2018-04-17T02:30:32.966Z,995.66
2018-04-17T02:31:32.951Z,995.65
2018-04-17T02:32:32.950Z,995.63
2018-04-17T02:33:32.948Z,995.64
2018-04-17T02:34:32.943Z,995.61
2018-04-17T02:35:32.939Z,995.66
2018-04-17T02:36:32.940Z,995.66
2018-04-17T02:37:32.935Z,995.64
2018-04-17T02:38:32.932Z,995.66
2018-04-17T02:39:32.927Z,995.66
2018-04-17T02:40:32.929Z,995.71
2018-04-17T02:41:32.924Z,995.67
2018-04-17T02:42:32.921Z,995.69
2018-04-17T02:43:32.925Z,995.72
2018-04-17T02:44:32.922Z,995.7
2018-04-17T02:45:32.908Z,995.72
2018-04-17T02:46:32.905Z,995.73
2018-04-17T02:47:32.917Z,995.68
2018-04-17T02:48:32.903Z,995.71
2018-04-17T02:49:32.905Z,995.74
2018-04-17T02:50:32.892Z,995.71
2018-04-17T02:51:32.889Z,995.76
2018-04-17T02:52:32.888Z,995.77
2018-04-17T02:53:32.884Z,995.8
2018-04-17T02:54:32.879Z,995.78
2018-04-17T02:55:32.875Z,995.81
2018-04-17T02:56:32.872Z,995.8
2018-04-17T02:57:32.869Z,995.83
2018-04-17T02:58:32.865Z,995.85
2018-04-17T02:59:32.862Z,995.84
2018-04-17T03:00:32.858Z,995.88
2018-04-17T03:01:32.855Z,995.92
2018-04-17T03:02:32.850Z,995.93
2018-04-17T03:03:32.849Z,995.94
2018-04-17T03:04:32.845Z,995.94
2018-04-17T03:05:32.843Z,995.92
2018-04-17T03:06:32.837Z,995.96
2018-04-17T03:07:32.833Z,995.98
2018-04-17T03:08:32.831Z,995.97
2018-04-17T03:09:32.828Z,996
2018-04-17T03:10:32.826Z,996.01
2018-04-17T03:11:32.820Z,996.04
2018-04-17T03:12:32.817Z,996.04
2018-04-17T03:13:32.814Z,996.04
2018-04-17T03:14:32.810Z,996.03
2018-04-17T03:15:32.806Z,996.05
2018-04-17T03:16:32.803Z,996.05
2018-04-17T03:17:32.801Z,996.04
2018-04-17T03:18:35.447Z,996.07
2018-04-17T03:19:32.793Z,996.06
2018-04-17T03:20:32.795Z,996.06
2018-04-17T03:21:32.787Z,996.09
2018-04-17T03:22:32.783Z,996.11
2018-04-17T03:23:32.779Z,996.12
2018-04-17T03:24:32.775Z,996.15
2018-04-17T03:25:32.772Z,996.15
2018-04-17T03:26:32.768Z,996.19
2018-04-17T03:27:32.764Z,996.18
2018-04-17T03:28:32.763Z,996.21
2018-04-17T03:29:32.760Z,996.2
2018-04-17T03:37:42.227Z,996.32
2018-04-17T03:38:42.225Z,996.34
2018-04-17T03:39:42.226Z,996.33
2018-04-17T03:40:42.216Z,996.32
2018-04-17T03:41:42.214Z,996.34
2018-04-17T03:42:42.212Z,996.4
2018-04-17T03:43:42.208Z,996.41
2018-04-17T03:44:42.202Z,996.42
2018-04-17T03:45:42.199Z,996.43
2018-04-17T03:46:42.196Z,996.44
2018-04-17T03:47:42.192Z,996.42
2018-04-17T03:48:42.187Z,996.46
2018-04-17T03:49:42.183Z,996.43
2018-04-17T03:50:42.180Z,996.48
2018-04-17T03:51:42.177Z,996.47
2018-04-17T03:52:42.171Z,996.48
2018-04-17T03:53:42.168Z,996.51
2018-04-17T03:54:42.168Z,996.51
2018-04-17T03:55:42.169Z,996.5
2018-04-17T03:56:42.158Z,996.47
2018-04-17T03:57:42.155Z,996.55
2018-04-17T03:58:42.151Z,996.55
2018-04-17T03:59:42.147Z,996.55
2018-04-17T04:00:42.146Z,996.56
2018-04-17T04:01:42.140Z,996.59
2018-04-17T04:02:42.178Z,996.63
2018-04-17T04:03:42.141Z,996.61
2018-04-17T04:04:42.140Z,996.65
2018-04-17T04:05:42.129Z,996.64
2018-04-17T04:06:42.131Z,996.63
2018-04-17T04:07:45.027Z,996.63
2018-04-17T04:08:42.116Z,996.73
2018-04-17T04:09:42.115Z,996.66
2018-04-17T04:10:42.107Z,996.71
2018-04-17T04:11:42.109Z,996.71
2018-04-17T04:12:42.101Z,996.71
2018-04-17T04:13:42.098Z,996.72
2018-04-17T04:14:42.093Z,996.73
2018-04-17T04:15:42.090Z,996.75
2018-04-17T04:16:42.112Z,996.74
2018-04-17T04:17:42.082Z,996.77
2018-04-17T04:18:42.078Z,996.76
2018-04-17T04:19:42.075Z,996.81
2018-04-17T04:20:42.084Z,996.85
2018-04-17T04:21:42.070Z,996.84
2018-04-17T04:22:42.064Z,996.89
2018-04-17T04:23:42.062Z,996.88
2018-04-17T04:24:42.057Z,996.88
2018-04-17T04:25:42.052Z,996.9
2018-04-17T04:26:42.049Z,996.92
2018-04-17T04:27:42.046Z,996.97
2018-04-17T04:28:42.042Z,996.94
2018-04-17T04:29:42.037Z,996.98
2018-04-17T04:30:42.034Z,996.97
2018-04-17T04:31:42.031Z,997.01
2018-04-17T04:32:42.026Z,997.05
2018-04-17T04:33:42.055Z,997.02
2018-04-17T04:34:42.018Z,997.06
2018-04-17T04:35:42.015Z,997.05
2018-04-17T04:36:42.011Z,997.14
2018-04-17T04:37:42.007Z,997.1
2018-04-17T04:38:42.002Z,997.17
2018-04-17T04:39:41.999Z,997.17
2018-04-17T04:40:41.995Z,997.15
2018-04-17T04:41:41.990Z,997.19
2018-04-17T04:42:41.987Z,997.19
2018-04-17T04:43:41.984Z,997.15
2018-04-17T04:44:41.979Z,997.16
2018-04-17T04:45:41.976Z,997.18
2018-04-17T04:46:41.972Z,997.2
2018-04-17T04:47:41.970Z,997.2
2018-04-17T04:48:41.970Z,997.21
2018-04-17T04:49:41.961Z,997.22
2018-04-17T04:50:41.961Z,997.27
2018-04-17T04:51:41.953Z,997.28
2018-04-17T04:52:41.951Z,997.31
2018-04-17T04:53:41.946Z,997.32
2018-04-17T04:54:41.946Z,997.3
2018-04-17T04:55:41.938Z,997.29
2018-04-17T04:56:41.935Z,997.33
2018-04-17T04:57:41.972Z,997.37
2018-04-17T04:58:41.929Z,997.39
2018-04-17T04:59:41.924Z,997.4
2018-04-17T05:00:41.920Z,997.46
2018-04-17T05:01:41.918Z,997.4
2018-04-17T05:02:41.912Z,997.43
2018-04-17T05:03:41.911Z,997.4
2018-04-17T05:04:41.907Z,997.44
2018-04-17T05:05:41.904Z,997.52
2018-04-17T05:06:41.912Z,997.52
2018-04-17T05:07:41.905Z,997.52
2018-04-17T05:08:43.200Z,997.52
2018-04-17T05:09:41.895Z,997.56
2018-04-17T05:10:41.893Z,997.55
2018-04-17T05:11:41.891Z,997.57
2018-04-17T05:12:41.891Z,997.6
2018-04-17T05:13:41.894Z,997.57
2018-04-17T05:14:41.886Z,997.57
2018-04-17T05:15:41.885Z,997.59
2018-04-17T05:16:41.881Z,997.58
2018-04-17T05:17:41.881Z,997.68
2018-04-17T05:18:41.880Z,997.7
2018-04-17T05:19:41.883Z,997.7
2018-04-17T05:20:41.879Z,997.68
2018-04-17T05:21:41.886Z,997.76
2018-04-17T05:22:41.884Z,997.72
2018-04-17T05:23:41.875Z,997.76
2018-04-17T05:24:41.878Z,997.74
2018-04-17T05:25:41.892Z,997.79
2018-04-17T05:26:41.876Z,997.77
2018-04-17T05:27:41.876Z,997.8
2018-04-17T05:28:41.875Z,997.79
2018-04-17T05:29:41.876Z,997.76
2018-04-17T05:30:41.874Z,997.81
2018-04-17T05:31:41.872Z,997.82
2018-04-17T05:32:41.872Z,997.91
2018-04-17T05:33:41.872Z,997.92
2018-04-17T05:34:41.875Z,997.96
2018-04-17T05:35:41.873Z,997.88
2018-04-17T05:36:41.870Z,997.93
2018-04-17T05:37:41.874Z,997.92
2018-04-17T05:38:41.870Z,997.95
2018-04-17T05:39:41.871Z,997.96
2018-04-17T05:40:41.871Z,997.91
2018-04-17T05:41:41.873Z,997.92
2018-04-17T05:42:41.872Z,997.95
2018-04-17T05:43:41.871Z,997.97
2018-04-17T05:44:41.872Z,997.93
2018-04-17T05:45:41.878Z,997.91
2018-04-17T05:46:41.875Z,997.93
2018-04-17T05:47:41.874Z,997.94
2018-04-17T05:48:41.877Z,997.95
2018-04-17T05:49:41.876Z,997.95
2018-04-17T05:50:41.880Z,997.95
2018-04-17T05:51:41.883Z,997.88
2018-04-17T05:52:41.883Z,997.89
2018-04-17T05:53:41.885Z,997.91
2018-04-17T05:54:41.888Z,997.96
2018-04-17T05:55:41.892Z,998
2018-04-17T05:56:41.893Z,997.99
2018-04-17T05:57:41.892Z,998.04
2018-04-17T05:58:41.895Z,998.05
2018-04-17T05:59:41.895Z,998.05
2018-04-17T06:00:41.896Z,998.05
2018-04-17T06:01:41.900Z,998.06
2018-04-17T06:02:41.900Z,998.04
2018-04-17T06:03:41.905Z,998.06
2018-04-17T06:04:41.905Z,998.07
2018-04-17T06:05:41.900Z,998.05
2018-04-17T06:06:41.905Z,998.05
2018-04-17T06:07:41.904Z,998.04
2018-04-17T06:08:41.906Z,998.07
2018-04-17T06:09:41.905Z,998.04
2018-04-17T06:10:41.905Z,998.09
2018-04-17T06:11:41.904Z,998.1
2018-04-17T06:12:41.910Z,998.08
2018-04-17T06:22:06.745Z,998.2
2018-04-17T06:23:06.745Z,998.23
2018-04-17T06:24:06.737Z,998.29
2018-04-17T06:25:06.731Z,998.32
2018-04-17T06:26:06.779Z,998.31
2018-04-17T06:27:06.733Z,998.32
2018-04-17T06:28:06.729Z,998.35
2018-04-17T06:29:06.729Z,998.36
2018-04-17T06:30:06.740Z,998.35
2018-04-17T06:31:06.732Z,998.41
2018-04-17T06:32:06.754Z,998.42
2018-04-17T06:33:06.733Z,998.41
2018-04-17T06:34:06.738Z,998.41
2018-04-17T06:35:06.777Z,998.4
2018-04-17T06:36:06.742Z,998.42
2018-04-17T06:37:06.747Z,998.4
2018-04-17T06:38:06.745Z,998.42
2018-04-17T06:39:06.749Z,998.4
2018-04-17T06:40:06.762Z,998.42
2018-04-17T06:41:06.756Z,998.47
2018-04-17T06:42:11.038Z,998.49
2018-04-17T06:43:06.788Z,998.45
2018-04-17T06:44:06.792Z,998.47
2018-04-17T06:45:06.774Z,998.48
2018-04-17T06:46:06.778Z,998.42
2018-04-17T06:47:06.781Z,998.52
2018-04-17T06:48:06.788Z,998.47
2018-04-17T06:49:06.797Z,998.48
2018-04-17T06:50:06.809Z,998.55
2018-04-17T06:51:06.801Z,998.52
2018-04-17T06:52:06.811Z,998.54
2018-04-17T06:53:06.842Z,998.54
2018-04-17T06:54:06.814Z,998.52
2018-04-17T06:55:06.831Z,998.55
2018-04-17T06:56:06.829Z,998.55
2018-04-17T06:57:06.832Z,998.54
2018-04-17T06:58:06.894Z,998.53
2018-04-17T06:59:06.841Z,998.54
2018-04-17T07:00:06.848Z,998.56
2018-04-17T07:01:06.854Z,998.58
2018-04-17T07:02:06.857Z,998.61
2018-04-17T07:03:06.864Z,998.57
2018-04-17T07:04:06.869Z,998.61
2018-04-17T07:05:06.876Z,998.6
2018-04-17T07:06:06.880Z,998.61
2018-04-17T07:07:06.886Z,998.64
2018-04-17T07:08:06.894Z,998.65
2018-04-17T07:09:06.900Z,998.65
2018-04-17T07:10:06.945Z,998.69
2018-04-17T07:11:06.909Z,998.63
2018-04-17T07:12:06.917Z,998.66
2018-04-17T07:13:06.922Z,998.68
2018-04-17T07:14:06.930Z,998.74
2018-04-17T07:15:06.974Z,998.72
2018-04-17T07:16:06.942Z,998.75
2018-04-17T07:17:06.956Z,998.71
2018-04-17T07:18:06.961Z,998.73
2018-04-17T07:19:06.961Z,998.71
2018-04-17T07:20:06.967Z,998.73
2018-04-17T07:21:06.974Z,998.69
2018-04-17T07:22:06.982Z,998.7
2018-04-17T07:23:06.991Z,998.74
2018-04-17T07:24:06.996Z,998.72
2018-04-17T07:25:07.000Z,998.7
2018-04-17T07:26:07.007Z,998.74
2018-04-17T07:27:07.012Z,998.72
2018-04-17T07:28:07.018Z,998.7
2018-04-17T07:29:07.024Z,998.72
2018-04-17T07:30:07.029Z,998.7
2018-04-17T07:31:07.032Z,998.69
2018-04-17T07:32:07.038Z,998.69
2018-04-17T07:33:07.043Z,998.69
2018-04-17T07:34:07.047Z,998.72
2018-04-17T07:35:07.051Z,998.77
2018-04-17T07:36:07.055Z,998.74
2018-04-17T07:37:07.064Z,998.78
2018-04-17T07:38:07.074Z,998.75
2018-04-17T07:39:07.068Z,998.75
2018-04-17T07:40:07.073Z,998.8
2018-04-17T07:41:07.079Z,998.75
2018-04-17T07:42:07.082Z,998.78
2018-04-17T07:43:07.544Z,998.81
2018-04-17T07:44:07.091Z,998.83
2018-04-17T07:45:07.097Z,998.86
2018-04-17T07:46:07.100Z,998.88
2018-04-17T07:47:07.107Z,998.93
2018-04-17T07:48:07.111Z,998.96
2018-04-17T07:49:07.114Z,999
2018-04-17T07:50:07.119Z,999.01
2018-04-17T07:51:07.125Z,999
2018-04-17T07:52:07.128Z,999.02
2018-04-17T07:53:07.133Z,999.07
2018-04-17T07:54:07.140Z,999.09
2018-04-17T07:55:07.144Z,999.12
2018-04-17T07:56:07.149Z,999.14
2018-04-17T07:57:07.155Z,999.14
2018-04-17T07:58:07.166Z,999.13
2018-04-17T07:59:07.166Z,999.18
2018-04-17T08:00:07.171Z,999.2
2018-04-17T08:01:07.179Z,999.22
2018-04-17T08:02:07.183Z,999.22
2018-04-17T08:03:07.189Z,999.23
2018-04-17T08:04:07.194Z,999.18
2018-04-17T08:05:07.230Z,999.2
2018-04-17T08:06:07.256Z,999.22
2018-04-17T08:07:07.212Z,999.16
2018-04-17T08:08:07.222Z,999.2
2018-04-17T08:09:07.230Z,999.2
2018-04-17T08:10:07.234Z,999.19
2018-04-17T08:11:07.240Z,999.23
2018-04-17T08:12:07.245Z,999.19
2018-04-17T08:13:11.512Z,999.21
2018-04-17T08:14:07.269Z,999.2
2018-04-17T08:15:07.266Z,999.26
2018-04-17T08:16:07.279Z,999.25
2018-04-17T08:17:07.285Z,999.29
2018-04-17T08:18:07.289Z,999.29
2018-04-17T08:19:07.291Z,999.3
2018-04-17T08:20:07.300Z,999.32
2018-04-17T08:21:07.306Z,999.31
2018-04-17T08:22:07.312Z,999.3
2018-04-17T08:23:07.320Z,999.31
2018-04-17T08:24:07.327Z,999.32
2018-04-17T08:25:07.332Z,999.31
2018-04-17T08:26:07.339Z,999.3
2018-04-17T08:27:07.345Z,999.32
2018-04-17T08:28:07.352Z,999.31
2018-04-17T08:29:07.358Z,999.28
2018-04-17T08:30:07.375Z,999.34
2018-04-17T08:31:07.373Z,999.33
2018-04-17T08:32:07.378Z,999.34
2018-04-17T08:33:07.387Z,999.35
2018-04-17T08:34:07.394Z,999.32
2018-04-17T08:35:07.401Z,999.35
2018-04-17T08:36:07.408Z,999.28
2018-04-17T08:37:07.413Z,999.25
2018-04-17T08:38:07.423Z,999.29
2018-04-17T08:39:07.427Z,999.3
2018-04-17T08:40:07.435Z,999.28
2018-04-17T08:41:07.445Z,999.28
2018-04-17T08:42:07.449Z,999.27
2018-04-17T08:43:07.459Z,999.27
2018-04-17T08:44:07.462Z,999.32
2018-04-17T08:45:07.471Z,999.26
2018-04-17T08:46:07.479Z,999.32
2018-04-17T08:47:07.484Z,999.3
2018-04-17T08:48:07.487Z,999.29
2018-04-17T08:49:07.495Z,999.31
2018-04-17T08:50:07.500Z,999.29
2018-04-17T08:51:07.504Z,999.29
2018-04-17T08:52:07.513Z,999.28
2018-04-17T08:53:07.517Z,999.29
2018-04-17T08:54:07.521Z,999.29
2018-04-17T08:55:07.542Z,999.25
2018-04-17T08:56:07.541Z,999.26
2018-04-17T08:57:07.544Z,999.27
2018-04-17T08:58:07.540Z,999.25
2018-04-17T08:59:07.544Z,999.26
2018-04-17T09:00:07.625Z,999.32
2018-04-17T09:01:07.556Z,999.31
2018-04-17T09:02:07.554Z,999.28
2018-04-17T09:03:07.560Z,999.31
2018-04-17T09:04:07.565Z,999.3
2018-04-17T09:05:07.577Z,999.34
2018-04-17T09:06:07.572Z,999.33
2018-04-17T09:07:07.577Z,999.32
2018-04-17T09:08:07.579Z,999.31
2018-04-17T09:09:07.584Z,999.29
2018-04-17T09:10:07.587Z,999.28
2018-04-17T09:11:07.591Z,999.29
2018-04-17T09:12:07.595Z,999.28
2018-04-17T09:13:07.597Z,999.29
2018-04-17T09:14:11.007Z,999.3
2018-04-17T09:15:07.608Z,999.32
2018-04-17T09:16:07.615Z,999.33
2018-04-17T09:17:07.641Z,999.35
2018-04-17T09:18:07.624Z,999.32
2018-04-17T09:19:07.623Z,999.32
2018-04-17T09:20:07.698Z,999.36
2018-04-17T09:21:07.626Z,999.31
2018-04-17T09:22:07.645Z,999.35
2018-04-17T09:23:07.631Z,999.34
2018-04-17T09:24:07.638Z,999.32
2018-04-17T09:25:07.648Z,999.31
2018-04-17T09:26:07.645Z,999.31
2018-04-17T09:27:07.646Z,999.29
2018-04-17T09:28:07.649Z,999.3
2018-04-17T09:29:07.659Z,999.29
2018-04-17T09:30:07.761Z,999.3
2018-04-17T09:31:07.662Z,999.27
2018-04-17T09:32:07.664Z,999.31
2018-04-17T09:33:07.705Z,999.28
2018-04-17T09:34:07.675Z,999.32
2018-04-17T09:35:07.708Z,999.32
2018-04-17T09:36:07.719Z,999.33
2018-04-17T09:37:07.684Z,999.35
2018-04-17T09:38:07.685Z,999.31
2018-04-17T09:39:07.691Z,999.33
2018-04-17T09:40:07.691Z,999.35
2018-04-17T09:41:07.696Z,999.35
2018-04-17T09:42:07.701Z,999.35
2018-04-17T09:43:07.701Z,999.34
2018-04-17T09:44:07.704Z,999.34
2018-04-17T09:45:07.710Z,999.34
2018-04-17T09:46:07.711Z,999.35
2018-04-17T09:47:07.715Z,999.29
2018-04-17T09:48:07.719Z,999.33
2018-04-17T09:49:07.724Z,999.31
2018-04-17T09:50:07.807Z,999.35
2018-04-17T09:51:07.730Z,999.31
2018-04-17T09:52:07.734Z,999.33
2018-04-17T09:53:07.735Z,999.3
2018-04-17T09:54:07.747Z,999.31
2018-04-17T09:55:07.923Z,999.25
2018-04-17T09:56:07.744Z,999.31
2018-04-17T09:57:07.749Z,999.28
2018-04-17T09:58:07.750Z,999.3
2018-04-17T09:59:07.754Z,999.3
2018-04-17T10:00:07.949Z,999.32
2018-04-17T10:01:07.761Z,999.31
2018-04-17T10:02:07.764Z,999.3
2018-04-17T10:03:07.769Z,999.31
2018-04-17T10:04:07.775Z,999.28
2018-04-17T10:05:07.778Z,999.32
2018-04-17T10:06:07.781Z,999.29
2018-04-17T10:07:07.782Z,999.32
2018-04-17T10:08:07.787Z,999.35
2018-04-17T10:09:07.895Z,999.36
2018-04-17T10:10:07.793Z,999.36
2018-04-17T10:11:07.797Z,999.36
2018-04-17T10:12:07.801Z,999.35
2018-04-17T10:13:07.804Z,999.4
2018-04-17T10:14:07.809Z,999.39
2018-04-17T10:15:08.168Z,999.37
2018-04-17T10:16:07.819Z,999.33
2018-04-17T10:17:07.819Z,999.33
2018-04-17T10:18:07.821Z,999.31
2018-04-17T10:19:07.826Z,999.33
2018-04-17T10:20:07.829Z,999.36
2018-04-17T10:21:07.837Z,999.33
2018-04-17T10:22:07.838Z,999.31
2018-04-17T10:52:55.837Z,999.27
2018-04-17T10:53:52.677Z,999.3
2018-04-17T10:54:52.614Z,999.27
2018-04-17T10:55:52.611Z,999.25
2018-04-17T10:56:52.613Z,999.24
2018-04-17T10:57:52.613Z,999.21
2018-04-17T10:58:52.616Z,999.23
2018-04-17T10:59:52.616Z,999.23
2018-04-17T11:00:52.618Z,999.22
2018-04-17T11:01:52.620Z,999.17
2018-04-17T11:02:52.626Z,999.2
2018-04-17T11:03:52.623Z,999.19
2018-04-17T11:04:52.666Z,999.2
2018-04-17T11:05:52.630Z,999.24
2018-04-17T11:06:52.633Z,999.19
2018-04-17T11:07:52.632Z,999.18
2018-04-17T11:08:52.635Z,999.18
2018-04-17T11:09:52.636Z,999.12
2018-04-17T11:10:52.640Z,999.13
2018-04-17T11:11:52.647Z,999.12
2018-04-17T11:12:52.651Z,999.14
2018-04-17T11:13:52.649Z,999.15
2018-04-17T11:14:52.653Z,999.16
2018-04-17T11:15:52.656Z,999.14
2018-04-17T11:16:52.658Z,999.1
2018-04-17T11:17:52.662Z,999.16
2018-04-17T11:18:52.669Z,999.15
2018-04-17T11:19:52.675Z,999.13
2018-04-17T11:20:52.675Z,999.14
2018-04-17T11:21:52.677Z,999.13
2018-04-17T11:22:52.681Z,999.13
2018-04-17T11:23:52.688Z,999.11
2018-04-17T11:24:52.691Z,999.1
2018-04-17T11:25:52.692Z,999.08
2018-04-17T11:26:52.693Z,999.07
2018-04-17T11:27:52.703Z,999.09
2018-04-17T11:28:52.702Z,999.1
2018-04-17T11:29:52.704Z,999.08
2018-04-17T11:30:52.725Z,999.11
2018-04-17T11:31:52.718Z,999.09
2018-04-17T11:32:52.722Z,999.06
2018-04-17T11:33:52.722Z,999.07
2018-04-17T11:34:52.728Z,999.05
2018-04-17T11:35:52.727Z,999.06
2018-04-17T11:36:52.731Z,999.14
2018-04-17T11:37:52.776Z,999.09
2018-04-17T11:38:52.748Z,998.99
2018-04-17T11:39:52.748Z,999.03
2018-04-17T11:40:52.751Z,999.04
2018-04-17T11:41:52.753Z,999.06
2018-04-17T11:42:52.823Z,999.02
2018-04-17T11:43:52.757Z,999.06
2018-04-17T11:44:52.761Z,999.02
2018-04-17T11:45:52.766Z,999.04
2018-04-17T11:46:52.772Z,999.02
2018-04-17T11:47:52.774Z,999.01
2018-04-17T11:48:52.776Z,999.03
2018-04-17T11:49:52.785Z,999.03
2018-04-17T11:50:52.787Z,999.04
2018-04-17T11:51:52.793Z,999.07
2018-04-17T11:52:52.790Z,999.02
2018-04-17T11:53:52.808Z,999.04
2018-04-17T11:54:52.809Z,999.02
2018-04-17T11:55:52.803Z,999.04
2018-04-17T11:56:52.810Z,999.02
2018-04-17T11:57:52.815Z,999.03
2018-04-17T11:58:52.819Z,999.05
2018-04-17T11:59:52.819Z,999.08
2018-04-17T12:00:52.823Z,998.99
2018-04-17T12:01:52.825Z,999.03
2018-04-17T12:02:52.829Z,999.01
2018-04-17T12:03:52.831Z,999.03
2018-04-17T12:04:52.836Z,999.03
2018-04-17T12:05:52.839Z,999.01
2018-04-17T12:06:52.845Z,999
2018-04-17T12:07:52.848Z,999.07
2018-04-17T12:08:53.008Z,999.04
2018-04-17T12:09:52.855Z,999.04
2018-04-17T12:10:52.859Z,998.99
2018-04-17T12:11:52.863Z,999.02
2018-04-17T12:12:52.871Z,999.02
2018-04-17T12:13:52.945Z,999.02
2018-04-17T12:14:52.874Z,999.01
2018-04-17T12:15:52.878Z,999.02
2018-04-17T12:16:52.881Z,999
2018-04-17T12:17:52.897Z,999.01
2018-04-17T12:18:53.691Z,999.02
2018-04-17T12:19:52.892Z,998.97
2018-04-17T12:20:52.899Z,998.94
2018-04-17T12:21:52.902Z,998.94
2018-04-17T12:22:52.904Z,998.98
2018-04-17T12:23:52.907Z,998.95
2018-04-17T12:24:52.912Z,998.95
2018-04-17T12:25:52.977Z,998.93
2018-04-17T12:26:52.921Z,998.93
2018-04-17T12:27:52.929Z,998.97
2018-04-17T12:28:52.929Z,998.92
2018-04-17T12:29:52.930Z,998.96
2018-04-17T12:30:52.938Z,998.93
2018-04-17T12:31:52.943Z,998.92
2018-04-17T12:32:52.944Z,998.92
2018-04-17T12:33:52.949Z,998.92
2018-04-17T12:34:52.951Z,998.9
2018-04-17T12:35:52.956Z,998.92
2018-04-17T12:36:52.959Z,998.9
2018-04-17T12:37:52.971Z,998.89
2018-04-17T12:38:52.967Z,998.92
2018-04-17T12:39:52.971Z,998.87
2018-04-17T12:40:52.977Z,998.83
2018-04-17T12:41:52.979Z,998.88
2018-04-17T12:42:52.983Z,998.86
2018-04-17T12:43:52.987Z,998.8
2018-04-17T12:44:53.026Z,998.84
2018-04-17T12:45:52.997Z,998.81
2018-04-17T12:46:53.017Z,998.84
2018-04-17T12:47:53.023Z,998.86
2018-04-17T12:48:53.007Z,998.87
2018-04-17T12:49:53.014Z,998.85
2018-04-17T12:50:53.020Z,998.89
2018-04-17T12:51:53.042Z,998.85
2018-04-17T12:52:53.028Z,998.85
2018-04-17T12:53:53.034Z,998.82
2018-04-17T12:54:53.032Z,998.8
2018-04-17T12:55:53.037Z,998.78
2018-04-17T12:56:53.038Z,998.77
2018-04-17T12:57:53.044Z,998.8
2018-04-17T12:58:53.052Z,998.76
2018-04-17T12:59:53.053Z,998.75
2018-04-17T13:00:53.056Z,998.73
2018-04-17T13:01:53.063Z,998.77
2018-04-17T13:02:53.083Z,998.76
2018-04-17T13:03:53.075Z,998.83
2018-04-17T13:04:53.076Z,998.87
2018-04-17T13:05:53.087Z,998.85
2018-04-17T13:06:53.094Z,998.84
2018-04-17T13:07:53.087Z,998.84
2018-04-17T13:08:53.104Z,998.83
2018-04-17T13:09:53.096Z,998.88
2018-04-17T13:10:53.099Z,998.88
2018-04-17T13:11:53.105Z,998.85
2018-04-17T13:12:53.110Z,998.9
2018-04-17T13:13:53.114Z,998.86
2018-04-17T13:14:53.119Z,998.82
2018-04-17T13:15:53.130Z,998.79
2018-04-17T13:16:53.134Z,998.8